Time;durP1;ratioP1;P1;durP2;ratioP2;P2;SDS_P1;SDS_P2;PMS_P1;PMS_P2;Temp;Humidity;BMP_temperature;BMP_pressure;BME280_temperature;BME280_humidity;BME280_pressure;Samples;Min_cycle;Max_cycle;Signal;HPM_P1;HPM_P2
2024/01/26 00:00:53;;;;;;;5.55;1.90;;;22.60;33.40;;;;;;4962677;28;20047;-62
2024/01/26 00:03:20;;;;;;;2.90;1.77;;;22.60;33.30;;;;;;4964102;28;20050;-63
2024/01/26 00:05:48;;;;;;;4.68;1.75;;;22.60;33.30;;;;;;4962740;28;20636;-63
2024/01/26 00:08:15;;;;;;;2.90;1.90;;;22.60;33.30;;;;;;4966292;28;20058;-63
2024/01/26 00:10:45;;;;;;;3.25;1.83;;;22.60;33.30;;;;;;4965222;28;20624;-63
2024/01/26 00:13:13;;;;;;;2.47;1.48;;;22.60;33.30;;;;;;4964552;28;20058;-63
2024/01/26 00:15:41;;;;;;;4.25;1.92;;;22.60;33.30;;;;;;4962428;28;20055;-63
2024/01/26 00:18:08;;;;;;;2.38;1.80;;;22.60;33.30;;;;;;4962962;28;20051;-63
2024/01/26 00:20:35;;;;;;;3.88;1.95;;;22.60;33.30;;;;;;4961412;28;20051;-63
2024/01/26 00:23:03;;;;;;;2.47;1.60;;;22.60;33.30;;;;;;4964771;28;20050;-63
2024/01/26 00:25:30;;;;;;;4.30;1.85;;;22.60;33.30;;;;;;4970269;28;20500;-63
2024/01/26 00:27:59;;;;;;;3.17;1.98;;;22.60;33.40;;;;;;4961678;28;20059;-63
2024/01/26 00:30:26;;;;;;;2.47;1.70;;;22.50;33.30;;;;;;4963407;28;20070;-63
2024/01/26 00:32:54;;;;;;;2.35;1.85;;;22.50;33.40;;;;;;4965212;28;20051;-63
2024/01/26 00:35:21;;;;;;;2.00;1.73;;;22.50;33.40;;;;;;4960668;28;20578;-63
2024/01/26 00:37:48;;;;;;;2.55;1.83;;;22.50;33.40;;;;;;4964237;28;20055;-63
2024/01/26 00:40:16;;;;;;;3.15;1.90;;;22.50;33.40;;;;;;4963099;28;20407;-61
2024/01/26 00:42:43;;;;;;;2.90;1.58;;;22.50;33.40;;;;;;4964425;28;20059;-61
2024/01/26 00:45:12;;;;;;;4.05;2.17;;;22.50;33.40;;;;;;4966196;28;20065;-61
2024/01/26 00:47:39;;;;;;;3.08;1.90;;;22.40;33.50;;;;;;4966181;28;20059;-61
2024/01/26 00:50:07;;;;;;;2.63;1.83;;;22.40;33.50;;;;;;4964679;28;20058;-61
2024/01/26 00:52:34;;;;;;;3.08;2.17;;;22.40;33.50;;;;;;4963312;28;20066;-61
2024/01/26 00:55:01;;;;;;;2.70;1.95;;;22.40;33.50;;;;;;4964147;28;20047;-61
2024/01/26 00:57:28;;;;;;;2.40;1.77;;;22.40;33.50;;;;;;4968855;28;20046;-61
2024/01/26 00:59:56;;;;;;;2.95;1.95;;;22.40;33.50;;;;;;4971344;28;20061;-60
2024/01/26 01:02:24;;;;;;;2.63;1.70;;;22.30;33.50;;;;;;4966227;28;20054;-60
2024/01/26 01:04:51;;;;;;;2.80;2.00;;;22.30;33.50;;;;;;4967111;28;20054;-60
2024/01/26 01:07:18;;;;;;;3.25;2.17;;;22.30;33.60;;;;;;4960189;28;20071;-60
2024/01/26 01:09:45;;;;;;;2.53;1.70;;;22.20;33.50;;;;;;4964008;28;20526;-61
2024/01/26 01:12:13;;;;;;;3.65;1.95;;;22.20;33.50;;;;;;4969211;23;20047;-60
2024/01/26 01:14:40;;;;;;;2.60;1.92;;;22.20;33.60;;;;;;4947289;28;20058;-60
2024/01/26 01:17:09;;;;;;;3.30;1.95;;;22.20;33.60;;;;;;4947560;28;20051;-61
2024/01/26 01:19:38;;;;;;;2.88;1.90;;;22.10;33.60;;;;;;4948070;28;20496;-61
2024/01/26 01:22:05;;;;;;;3.10;1.88;;;22.10;33.60;;;;;;4946878;28;20409;-61
2024/01/26 01:24:32;;;;;;;2.90;1.80;;;22.10;33.70;;;;;;4949043;28;20062;-61
2024/01/26 01:27:00;;;;;;;2.13;1.45;;;22.10;33.70;;;;;;4949140;29;20526;-61
2024/01/26 01:29:27;;;;;;;2.83;1.70;;;22.10;33.70;;;;;;4949938;28;20062;-61
2024/01/26 01:31:54;;;;;;;1.40;1.20;;;22.20;33.70;;;;;;4946172;28;20043;-61
2024/01/26 01:34:23;;;;;;;1.40;1.30;;;22.20;33.70;;;;;;4947465;28;20419;-61
2024/01/26 01:36:51;;;;;;;1.80;1.40;;;22.30;33.70;;;;;;4947729;28;20059;-62
2024/01/26 01:39:18;;;;;;;1.73;1.30;;;22.30;33.70;;;;;;4950706;28;20058;-61
2024/01/26 01:41:47;;;;;;;3.17;1.50;;;22.40;33.70;;;;;;4947102;28;20039;-61
2024/01/26 01:44:15;;;;;;;1.98;1.50;;;22.40;33.70;;;;;;4948991;28;20051;-61
2024/01/26 01:46:42;;;;;;;1.77;1.20;;;22.50;33.60;;;;;;4948421;28;20047;-61
2024/01/26 01:49:09;;;;;;;2.08;1.50;;;22.50;33.60;;;;;;4947815;28;20059;-61
2024/01/26 01:51:38;;;;;;;2.50;1.48;;;22.50;33.50;;;;;;4945480;28;20047;-61
2024/01/26 01:54:08;;;;;;;1.77;1.40;;;22.50;33.50;;;;;;4949161;29;20058;-60
2024/01/26 01:56:38;;;;;;;7.78;1.38;;;22.60;33.50;;;;;;4946688;28;20452;-60
2024/01/26 01:59:06;;;;;;;7.30;1.70;;;22.60;33.50;;;;;;4950661;28;20047;-59
2024/01/26 02:01:33;;;;;;;4.93;1.40;;;22.60;33.50;;;;;;4948294;28;20055;-62
2024/01/26 02:04:02;;;;;;;7.93;1.98;;;22.60;33.60;;;;;;4949050;28;20055;-61
2024/01/26 02:06:30;;;;;;;1.75;1.40;;;22.60;33.60;;;;;;4945258;29;20051;-62
2024/01/26 02:08:57;;;;;;;4.57;1.85;;;22.60;33.70;;;;;;4946999;28;20066;-62
2024/01/26 02:11:25;;;;;;;3.72;2.15;;;22.60;33.70;;;;;;4949478;28;20058;-62
2024/01/26 02:13:53;;;;;;;4.13;1.70;;;22.60;33.80;;;;;;4948171;28;20509;-62
2024/01/26 02:16:20;;;;;;;3.30;1.55;;;22.60;33.70;;;;;;4950128;28;20062;-63
2024/01/26 02:18:47;;;;;;;6.97;1.75;;;22.60;33.80;;;;;;4947668;28;20515;-62
2024/01/26 02:21:14;;;;;;;2.25;1.70;;;22.60;33.80;;;;;;4951132;28;20047;-65
2024/01/26 02:23:43;;;;;;;2.10;1.63;;;22.60;33.80;;;;;;4944511;28;20062;-66
2024/01/26 02:26:11;;;;;;;2.08;1.60;;;22.60;33.90;;;;;;4946691;28;20412;-62
2024/01/26 02:28:38;;;;;;;1.70;1.27;;;22.60;33.80;;;;;;4948769;28;20054;-61
2024/01/26 02:31:05;;;;;;;1.67;1.50;;;22.60;33.80;;;;;;4947496;28;20060;-66
2024/01/26 02:33:33;;;;;;;1.65;1.40;;;22.50;33.70;;;;;;4948326;28;20059;-62
2024/01/26 02:36:00;;;;;;;4.15;1.50;;;22.50;33.80;;;;;;4947405;28;20053;-62
2024/01/26 02:38:54;;;;;;;2.60;1.30;;;22.50;33.80;;;;;;4947843;28;20051;-64
2024/01/26 02:41:21;;;;;;;8.70;1.50;;;22.40;33.70;;;;;;4940934;28;20465;-61
2024/01/26 02:43:49;;;;;;;1.33;1.17;;;22.40;33.70;;;;;;4939737;28;20389;-61
2024/01/26 02:46:16;;;;;;;4.70;0.98;;;22.50;33.80;;;;;;4949490;28;20397;-62
2024/01/26 02:48:43;;;;;;;2.35;1.13;;;22.40;33.80;;;;;;4948610;28;20074;-61
2024/01/26 02:51:11;;;;;;;2.33;1.10;;;22.40;33.80;;;;;;4948051;28;20050;-63
2024/01/26 02:53:40;;;;;;;1.88;0.80;;;22.40;33.90;;;;;;4946697;28;20893;-61
2024/01/26 02:56:09;;;;;;;1.30;0.90;;;22.30;33.80;;;;;;4941132;28;20059;-61
2024/01/26 02:58:37;;;;;;;1.40;0.90;;;22.30;33.90;;;;;;4946787;28;20055;-61
2024/01/26 03:01:04;;;;;;;1.77;0.90;;;22.30;33.90;;;;;;4947212;28;20059;-60
2024/01/26 03:03:32;;;;;;;3.42;0.93;;;22.30;33.90;;;;;;4947866;28;20059;-61
2024/01/26 03:05:59;;;;;;;2.10;0.90;;;22.30;33.90;;;;;;4951014;28;20047;-62
2024/01/26 03:08:26;;;;;;;1.13;0.90;;;22.20;33.90;;;;;;4947586;28;20512;-61
2024/01/26 03:10:53;;;;;;;2.13;0.80;;;22.20;33.90;;;;;;4947789;28;20058;-61
2024/01/26 03:13:22;;;;;;;1.92;0.82;;;22.20;33.90;;;;;;4947564;28;20047;-62
2024/01/26 03:15:51;;;;;;;2.88;0.75;;;22.20;34.00;;;;;;4940405;28;20062;-61
2024/01/26 03:18:19;;;;;;;2.47;0.80;;;22.10;34.00;;;;;;4951744;29;20407;-63
2024/01/26 03:20:46;;;;;;;3.10;0.73;;;22.20;34.60;;;;;;4950863;28;20051;-62
2024/01/26 03:23:13;;;;;;;1.27;0.70;;;22.20;34.10;;;;;;4951618;28;20416;-62
2024/01/26 03:25:41;;;;;;;0.45;0.43;;;22.20;34.10;;;;;;4950305;28;20066;-62
2024/01/26 03:28:08;;;;;;;1.00;0.52;;;22.30;34.20;;;;;;4950059;28;20070;-62
2024/01/26 03:30:38;;;;;;;2.88;0.80;;;22.30;34.10;;;;;;4951537;29;20062;-62
2024/01/26 03:33:06;;;;;;;2.00;0.60;;;22.30;34.10;;;;;;4950317;28;20412;-72
2024/01/26 03:35:33;;;;;;;0.32;0.32;;;22.40;34.10;;;;;;4953608;28;20062;-66
2024/01/26 03:38:00;;;;;;;0.77;0.43;;;22.50;34.10;;;;;;4950814;28;20052;-65
2024/01/26 03:40:27;;;;;;;1.85;0.75;;;22.50;34.00;;;;;;4949710;28;20070;-61
2024/01/26 03:42:55;;;;;;;0.90;0.50;;;22.50;33.90;;;;;;4950189;28;20054;-61
2024/01/26 03:45:22;;;;;;;1.08;0.60;;;22.50;33.90;;;;;;4952030;28;20050;-64
2024/01/26 03:47:51;;;;;;;2.88;0.52;;;22.60;33.90;;;;;;4946588;28;20071;-63
2024/01/26 03:50:19;;;;;;;0.73;0.30;;;22.60;33.80;;;;;;4950448;28;20061;-63
2024/01/26 03:52:46;;;;;;;0.47;0.47;;;22.60;33.80;;;;;;4949908;28;20050;-63
2024/01/26 03:55:14;;;;;;;0.75;0.55;;;22.70;33.80;;;;;;4952873;28;20055;-63
2024/01/26 03:57:41;;;;;;;0.45;0.40;;;22.60;33.70;;;;;;4950765;28;20062;-61
2024/01/26 04:00:10;;;;;;;1.02;0.63;;;22.70;33.80;;;;;;4947691;28;20068;-62
2024/01/26 04:02:37;;;;;;;0.95;0.30;;;22.60;33.80;;;;;;4949094;28;20404;-68
2024/01/26 04:05:06;;;;;;;0.73;0.50;;;22.70;33.80;;;;;;4946895;28;20070;-65
2024/01/26 04:07:33;;;;;;;1.85;0.50;;;22.60;34.20;;;;;;4948354;28;20059;-67
2024/01/26 04:10:00;;;;;;;0.60;0.50;;;22.70;33.70;;;;;;4948503;28;20051;-68
2024/01/26 04:12:28;;;;;;;0.52;0.38;;;22.60;33.70;;;;;;4950668;28;20063;-66
2024/01/26 04:14:55;;;;;;;0.80;0.60;;;22.60;33.70;;;;;;4951511;28;20408;-66
2024/01/26 04:17:22;;;;;;;0.80;0.47;;;22.60;33.70;;;;;;4950137;28;20063;-64
2024/01/26 04:19:49;;;;;;;0.88;0.40;;;22.60;33.80;;;;;;4949933;28;20424;-63
2024/01/26 04:22:18;;;;;;;1.00;0.30;;;22.60;33.70;;;;;;4950365;28;20062;-62
2024/01/26 04:24:45;;;;;;;1.90;0.65;;;22.60;33.80;;;;;;4950457;28;20055;-62
2024/01/26 04:27:12;;;;;;;1.00;0.30;;;22.60;33.80;;;;;;4947913;28;20541;-61
2024/01/26 04:29:39;;;;;;;0.47;0.47;;;22.50;33.70;;;;;;4951682;28;20413;-61
2024/01/26 04:32:07;;;;;;;0.65;0.40;;;22.50;33.80;;;;;;4952130;28;20415;-60
2024/01/26 04:34:37;;;;;;;0.85;0.50;;;22.50;33.80;;;;;;4951037;28;20058;-61
2024/01/26 04:37:05;;;;;;;0.38;0.38;;;22.50;33.80;;;;;;4951430;28;20055;-61
2024/01/26 04:39:34;;;;;;;1.35;0.40;;;22.50;33.90;;;;;;4951901;29;20062;-61
2024/01/26 04:42:01;;;;;;;6.88;0.50;;;22.50;34.00;;;;;;4952292;28;20062;-58
2024/01/26 04:44:28;;;;;;;3.20;0.60;;;22.50;34.00;;;;;;4951732;28;20066;-60
2024/01/26 04:46:57;;;;;;;1.17;0.43;;;22.60;34.10;;;;;;4952600;28;20694;-62
2024/01/26 04:49:24;;;;;;;1.08;0.30;;;22.60;34.10;;;;;;4956606;28;20059;-63
2024/01/26 04:51:51;;;;;;;27.90;4.65;;;22.70;34.10;;;;;;4954591;29;20059;-62
2024/01/26 04:54:19;;;;;;;66.72;40.08;;;22.70;34.10;;;;;;4952629;28;20047;-65
2024/01/26 04:56:47;;;;;;;74.38;45.28;;;22.80;34.20;;;;;;4952749;28;20062;-63
2024/01/26 04:59:14;;;;;;;45.85;25.70;;;22.80;34.20;;;;;;4951618;28;20051;-63
2024/01/26 05:01:42;;;;;;;31.77;18.77;;;22.80;34.10;;;;;;4953252;28;20058;-63
2024/01/26 05:04:09;;;;;;;22.40;14.00;;;22.90;34.10;;;;;;4953473;28;20058;-63
2024/01/26 05:06:36;;;;;;;20.10;12.23;;;22.90;34.10;;;;;;4950956;29;20055;-63
2024/01/26 05:09:04;;;;;;;18.00;11.50;;;22.90;34.10;;;;;;4951843;28;20063;-61
2024/01/26 05:11:31;;;;;;;16.02;10.40;;;22.90;34.00;;;;;;4951964;28;20411;-61
2024/01/26 05:14:00;;;;;;;16.58;9.45;;;22.90;34.00;;;;;;4952071;28;20066;-61
2024/01/26 05:16:27;;;;;;;13.65;8.85;;;22.90;34.00;;;;;;4951687;28;20416;-61
2024/01/26 05:18:54;;;;;;;14.27;8.82;;;22.90;34.00;;;;;;4953180;28;20070;-60
2024/01/26 05:21:21;;;;;;;11.63;7.82;;;22.90;34.00;;;;;;4950618;28;20050;-62
2024/01/26 05:23:48;;;;;;;11.93;7.05;;;22.90;34.00;;;;;;4949896;28;20051;-61
2024/01/26 05:26:17;;;;;;;16.40;7.25;;;22.90;34.00;;;;;;4949188;28;20055;-65
2024/01/26 05:28:45;;;;;;;17.10;7.07;;;22.90;34.00;;;;;;4951808;28;20062;-62
2024/01/26 05:31:14;;;;;;;14.45;6.05;;;22.90;34.10;;;;;;4953120;29;20051;-63
2024/01/26 05:33:41;;;;;;;11.02;7.22;;;22.90;34.20;;;;;;4953027;29;20062;-63
2024/01/26 05:36:08;;;;;;;30.88;19.23;;;22.80;34.20;;;;;;4952250;28;20082;-61
2024/01/26 05:38:36;;;;;;;28.40;18.15;;;22.80;34.20;;;;;;4951420;28;20070;-62
2024/01/26 05:41:03;;;;;;;31.65;12.73;;;22.80;34.20;;;;;;4950663;28;20062;-65
2024/01/26 05:43:30;;;;;;;14.13;9.05;;;22.80;34.20;;;;;;4953387;28;20144;-64
2024/01/26 05:45:57;;;;;;;19.17;7.95;;;22.80;34.20;;;;;;4952365;28;20500;-62
2024/01/26 05:48:26;;;;;;;13.90;7.82;;;22.70;34.10;;;;;;4950386;28;20051;-63
2024/01/26 05:50:53;;;;;;;11.95;7.65;;;22.70;34.20;;;;;;4950046;28;20511;-63
2024/01/26 05:53:20;;;;;;;9.38;6.75;;;22.70;34.20;;;;;;4952598;28;20051;-66
2024/01/26 05:55:48;;;;;;;9.88;6.88;;;22.70;34.20;;;;;;4951135;28;20055;-65
2024/01/26 05:58:16;;;;;;;8.38;5.47;;;22.70;34.10;;;;;;4950737;29;20058;-64
2024/01/26 06:00:43;;;;;;;8.95;5.50;;;22.60;34.10;;;;;;4951585;28;20055;-63
2024/01/26 06:03:11;;;;;;;41.45;22.95;;;22.60;34.10;;;;;;4952558;28;20055;-63
2024/01/26 06:05:40;;;;;;;89.15;51.00;;;22.60;34.20;;;;;;4951424;28;20063;-64
2024/01/26 06:08:07;;;;;;;73.40;40.55;;;22.60;34.40;;;;;;4951826;28;20399;-62
2024/01/26 06:10:34;;;;;;;38.20;22.90;;;22.50;34.30;;;;;;4951533;28;20070;-62
2024/01/26 06:13:01;;;;;;;26.65;16.13;;;22.50;34.30;;;;;;4952365;28;20066;-63
2024/01/26 06:15:28;;;;;;;21.92;12.95;;;22.50;34.30;;;;;;4951888;28;20051;-63
2024/01/26 06:17:56;;;;;;;19.20;12.18;;;22.50;34.30;;;;;;4951823;28;20051;-63
2024/01/26 06:20:23;;;;;;;22.83;13.48;;;22.50;34.30;;;;;;4951068;28;20059;-63
2024/01/26 06:22:51;;;;;;;19.35;10.80;;;22.40;34.20;;;;;;4951575;28;20499;-63
2024/01/26 06:25:19;;;;;;;15.90;9.55;;;22.40;34.30;;;;;;4951645;29;20058;-64
2024/01/26 06:27:46;;;;;;;13.82;8.20;;;22.40;34.30;;;;;;4952168;28;20385;-63
2024/01/26 06:30:14;;;;;;;20.85;9.38;;;22.30;34.20;;;;;;4951756;28;20059;-62
2024/01/26 06:32:42;;;;;;;21.67;9.48;;;22.40;34.30;;;;;;4949895;28;20440;-61
2024/01/26 06:35:10;;;;;;;14.43;9.10;;;22.30;34.30;;;;;;4947410;28;20531;-61
2024/01/26 06:37:37;;;;;;;14.13;8.07;;;22.30;34.40;;;;;;4948566;28;20595;-62
2024/01/26 06:40:10;;;;;;;14.98;8.95;;;22.30;34.40;;;;;;4947610;28;20055;-62
2024/01/26 06:42:38;;;;;;;22.40;9.85;;;22.30;34.40;;;;;;4947494;28;20055;-65
2024/01/26 06:45:09;;;;;;;18.40;8.88;;;22.30;34.40;;;;;;4948587;28;20113;-65
2024/01/26 06:47:36;;;;;;;12.07;7.55;;;22.30;34.40;;;;;;4945648;28;20058;-66
2024/01/26 06:50:04;;;;;;;13.77;7.78;;;22.40;34.40;;;;;;4946481;28;20395;-65
2024/01/26 06:52:31;;;;;;;10.77;6.53;;;22.40;34.40;;;;;;4944461;28;20064;-65
2024/01/26 06:54:59;;;;;;;10.60;6.35;;;22.40;34.30;;;;;;4947222;29;20051;-66
2024/01/26 06:57:27;;;;;;;11.35;6.75;;;22.50;34.30;;;;;;4944817;28;20393;-64
2024/01/26 06:59:55;;;;;;;10.07;6.25;;;22.50;34.30;;;;;;4943019;28;20117;-65
2024/01/26 07:02:22;;;;;;;11.05;5.97;;;22.60;34.20;;;;;;4948428;28;20059;-65
2024/01/26 07:04:49;;;;;;;9.55;6.00;;;22.60;34.20;;;;;;4940548;28;20085;-66
2024/01/26 07:07:16;;;;;;;6.78;4.80;;;22.70;34.20;;;;;;4944906;28;20063;-66
2024/01/26 07:09:43;;;;;;;9.73;5.15;;;22.70;34.10;;;;;;4942902;28;20439;-66
2024/01/26 07:12:10;;;;;;;8.02;4.72;;;22.70;34.10;;;;;;4945094;28;20082;-67
2024/01/26 07:14:39;;;;;;;5.50;3.90;;;22.70;34.10;;;;;;4942007;28;20055;-66
2024/01/26 07:17:06;;;;;;;7.88;3.35;;;22.80;34.20;;;;;;4947142;28;20062;-66
2024/01/26 07:19:33;;;;;;;8.18;4.10;;;22.80;34.10;;;;;;4947025;28;20062;-64
2024/01/26 07:22:00;;;;;;;5.88;3.85;;;22.80;34.10;;;;;;4946371;28;20066;-63
2024/01/26 07:24:28;;;;;;;8.15;4.00;;;22.80;34.10;;;;;;4946726;28;20051;-63
2024/01/26 07:26:55;;;;;;;5.60;3.50;;;22.80;34.10;;;;;;4948899;28;20420;-65
2024/01/26 07:29:22;;;;;;;7.60;3.60;;;22.80;34.10;;;;;;4946438;28;20429;-65
2024/01/26 07:31:50;;;;;;;6.45;3.22;;;22.80;34.10;;;;;;4946952;28;20051;-63
2024/01/26 07:34:18;;;;;;;4.25;2.72;;;22.80;34.10;;;;;;4946859;28;20059;-64
2024/01/26 07:36:45;;;;;;;3.65;2.60;;;22.80;34.10;;;;;;4948937;28;20069;-63
2024/01/26 07:39:12;;;;;;;5.82;3.20;;;22.80;34.10;;;;;;4946184;28;20428;-62
2024/01/26 07:41:40;;;;;;;5.88;3.38;;;22.70;34.00;;;;;;4943252;28;20054;-60
2024/01/26 07:44:07;;;;;;;6.07;2.88;;;22.70;34.10;;;;;;4944902;28;20056;-60
2024/01/26 07:46:34;;;;;;;18.80;3.58;;;22.70;34.10;;;;;;4946335;28;20051;-60
2024/01/26 07:49:03;;;;;;;15.05;3.30;;;22.70;34.10;;;;;;4947808;28;20059;-61
2024/01/26 07:51:30;;;;;;;30.15;3.25;;;22.70;34.10;;;;;;4947072;28;20408;-59
2024/01/26 07:53:57;;;;;;;8.48;2.72;;;22.70;34.10;;;;;;4945587;28;20576;-60
2024/01/26 07:56:24;;;;;;;11.63;2.85;;;22.60;34.10;;;;;;4944245;28;20086;-61
2024/01/26 07:58:51;;;;;;;17.42;2.60;;;22.60;34.20;;;;;;4946628;28;20058;-59
2024/01/26 08:01:19;;;;;;;2.78;1.50;;;22.60;34.40;;;;;;4947408;28;20059;-60
2024/01/26 08:03:46;;;;;;;6.35;1.70;;;22.60;34.60;;;;;;4949341;28;20066;-60
2024/01/26 08:06:15;;;;;;;4.50;1.85;;;22.60;34.80;;;;;;4949000;28;20051;-59
2024/01/26 08:08:42;;;;;;;3.08;1.98;;;22.60;34.90;;;;;;4951017;28;20058;-57
2024/01/26 08:11:10;;;;;;;5.10;1.90;;;22.50;34.70;;;;;;4948157;28;20062;-61
2024/01/26 08:13:37;;;;;;;5.93;2.28;;;22.50;34.60;;;;;;4949586;28;20688;-61
2024/01/26 08:16:05;;;;;;;6.93;1.67;;;22.50;34.70;;;;;;4946701;28;20413;-61
2024/01/26 08:18:32;;;;;;;3.90;1.58;;;22.40;34.90;;;;;;4946654;28;20047;-61
2024/01/26 08:20:59;;;;;;;6.72;2.15;;;22.40;34.80;;;;;;4947971;28;20058;-61
2024/01/26 08:23:28;;;;;;;5.35;1.65;;;22.50;34.70;;;;;;4950230;28;20491;-59
2024/01/26 08:25:55;;;;;;;14.07;2.17;;;22.40;34.60;;;;;;4948847;28;20047;-61
2024/01/26 08:28:23;;;;;;;2.90;1.20;;;22.40;34.80;;;;;;4945914;28;20066;-61
2024/01/26 08:30:50;;;;;;;2.53;0.75;;;22.40;34.90;;;;;;4945937;28;20559;-62
2024/01/26 08:33:18;;;;;;;2.53;0.85;;;22.40;35.50;;;;;;4945582;28;20066;-61
2024/01/26 08:35:45;;;;;;;8.23;2.70;;;22.30;35.70;;;;;;4947293;28;20066;-61
2024/01/26 08:38:12;;;;;;;9.55;1.98;;;22.30;35.70;;;;;;4949508;28;20058;-63
2024/01/26 08:40:41;;;;;;;4.97;1.40;;;22.20;35.60;;;;;;4953525;29;20066;-65
2024/01/26 08:43:08;;;;;;;3.50;1.20;;;22.10;35.50;;;;;;4953264;28;20420;-65
2024/01/26 08:45:36;;;;;;;2.90;1.27;;;22.10;35.40;;;;;;4948601;28;20058;-62
2024/01/26 08:48:04;;;;;;;3.05;1.30;;;22.10;35.40;;;;;;4953172;28;20059;-59
2024/01/26 08:50:32;;;;;;;4.72;1.60;;;22.10;35.50;;;;;;4948622;28;20054;-62
2024/01/26 08:53:00;;;;;;;10.00;1.70;;;22.10;35.60;;;;;;4948538;28;20054;-64
2024/01/26 08:55:27;;;;;;;3.28;1.48;;;22.20;35.70;;;;;;4947449;28;20062;-60
2024/01/26 08:57:56;;;;;;;15.27;1.83;;;22.20;35.80;;;;;;4949066;28;20047;-57
2024/01/26 09:00:23;;;;;;;11.77;1.42;;;22.30;35.80;;;;;;4950410;28;20082;-57
2024/01/26 09:02:51;;;;;;;4.45;1.20;;;22.30;35.70;;;;;;4951145;28;20066;-62
2024/01/26 09:05:18;;;;;;;12.93;1.40;;;22.40;35.70;;;;;;4950069;28;20077;-59
2024/01/26 09:07:45;;;;;;;3.80;1.10;;;22.40;35.60;;;;;;4951297;28;20051;-58
2024/01/26 09:10:13;;;;;;;3.88;1.00;;;22.40;35.50;;;;;;4946726;28;20263;-58
2024/01/26 09:12:40;;;;;;;6.15;0.90;;;22.50;35.50;;;;;;4947834;28;20066;-57
2024/01/26 09:15:10;;;;;;;3.90;0.77;;;22.50;35.50;;;;;;4950027;28;20657;-59
2024/01/26 09:17:37;;;;;;;2.90;0.70;;;22.50;35.70;;;;;;4950225;28;20055;-58
2024/01/26 09:20:06;;;;;;;2.15;0.70;;;22.50;35.40;;;;;;4951229;28;20058;-57
2024/01/26 09:22:33;;;;;;;2.25;0.70;;;22.50;35.40;;;;;;4950887;29;20056;-58
2024/01/26 09:25:00;;;;;;;1.05;0.73;;;22.60;35.90;;;;;;4949180;28;20055;-59
2024/01/26 09:27:28;;;;;;;1.80;0.60;;;22.60;35.40;;;;;;4949234;28;20059;-60
2024/01/26 09:29:55;;;;;;;0.63;0.63;;;22.60;35.40;;;;;;4949599;28;20058;-60
2024/01/26 09:32:24;;;;;;;0.75;0.40;;;22.60;35.40;;;;;;4949628;28;20059;-61
2024/01/26 09:34:51;;;;;;;0.50;0.30;;;22.50;35.30;;;;;;4949496;28;20051;-60
2024/01/26 09:37:20;;;;;;;1.40;0.50;;;22.60;35.30;;;;;;4951100;28;20070;-59
2024/01/26 09:39:47;;;;;;;1.23;0.60;;;22.50;35.30;;;;;;4947483;28;20070;-59
2024/01/26 09:42:14;;;;;;;0.52;0.47;;;22.50;35.20;;;;;;4947163;28;20511;-58
2024/01/26 09:44:42;;;;;;;3.17;0.40;;;22.50;35.30;;;;;;4947822;28;20050;-59
2024/01/26 09:47:13;;;;;;;0.70;0.30;;;22.50;35.30;;;;;;4949109;28;20059;-58
2024/01/26 09:49:49;;;;;;;0.32;0.30;;;22.50;35.30;;;;;;4952421;29;20055;-60
2024/01/26 09:52:18;;;;;;;0.30;0.30;;;22.50;35.30;;;;;;4957657;28;20063;-59
2024/01/26 09:54:47;;;;;;;0.85;0.35;;;22.40;35.30;;;;;;4953891;28;20066;-58
2024/01/26 09:57:16;;;;;;;0.30;0.30;;;22.50;35.40;;;;;;4951899;28;20076;-58
2024/01/26 09:59:47;;;;;;;0.30;0.20;;;22.50;35.40;;;;;;4952269;28;20062;-59
2024/01/26 10:02:15;;;;;;;1.10;0.30;;;22.40;35.30;;;;;;4948776;28;20051;-66
2024/01/26 10:04:44;;;;;;;0.30;0.20;;;22.40;35.20;;;;;;4950535;28;20059;-65
2024/01/26 10:07:11;;;;;;;0.82;0.30;;;22.40;35.20;;;;;;4945258;28;20484;-66
2024/01/26 10:09:39;;;;;;;0.38;0.20;;;22.40;35.20;;;;;;4945765;28;20054;-66
2024/01/26 10:12:09;;;;;;;0.30;0.13;;;22.40;35.20;;;;;;4948771;28;20528;-65
2024/01/26 10:14:38;;;;;;;2.85;0.50;;;22.30;35.20;;;;;;4946783;28;20058;-66
2024/01/26 10:17:05;;;;;;;12.35;1.00;;;22.30;35.30;;;;;;4953591;28;20488;-66
2024/01/26 10:19:34;;;;;;;6.38;0.60;;;22.30;35.60;;;;;;4946347;28;20063;-66
2024/01/26 10:22:04;;;;;;;8.35;0.60;;;22.30;35.70;;;;;;4948925;28;20055;-64
2024/01/26 10:24:31;;;;;;;0.80;0.40;;;22.30;35.80;;;;;;4945388;28;20412;-64
2024/01/26 10:26:59;;;;;;;1.58;0.30;;;22.30;35.80;;;;;;4945625;28;20043;-64
2024/01/26 10:29:26;;;;;;;1.23;0.40;;;22.20;35.80;;;;;;4948084;28;20062;-64
2024/01/26 10:31:54;;;;;;;2.15;0.40;;;22.20;35.80;;;;;;4948029;28;20055;-64
2024/01/26 10:34:22;;;;;;;1.88;0.43;;;22.20;35.90;;;;;;4947363;28;20055;-64
2024/01/26 10:36:50;;;;;;;0.43;0.30;;;22.20;36.50;;;;;;4946157;28;20708;-64
2024/01/26 10:39:23;;;;;;;2.35;0.43;;;22.20;35.90;;;;;;4945324;28;20055;-64
2024/01/26 10:41:52;;;;;;;6.03;0.50;;;22.10;36.00;;;;;;4955075;28;20062;-64
2024/01/26 10:44:19;;;;;;;2.25;0.52;;;22.10;36.00;;;;;;4951633;28;20055;-65
2024/01/26 10:46:47;;;;;;;0.70;0.20;;;22.10;36.10;;;;;;4950258;28;20051;-65
2024/01/26 10:49:16;;;;;;;0.50;0.22;;;22.10;36.10;;;;;;4945175;28;20411;-65
2024/01/26 10:51:44;;;;;;;4.57;0.30;;;22.10;36.10;;;;;;4950260;28;20058;-65
2024/01/26 10:54:12;;;;;;;0.80;0.40;;;22.20;36.20;;;;;;4948813;28;20385;-65
2024/01/26 10:56:41;;;;;;;2.25;1.08;;;22.20;36.30;;;;;;4953136;28;20487;-64
2024/01/26 10:59:10;;;;;;;2.35;1.85;;;22.30;36.30;;;;;;4947661;28;20052;-65
2024/01/26 11:01:38;;;;;;;1.13;0.63;;;22.30;36.30;;;;;;4948179;29;20059;-65
2024/01/26 11:04:08;;;;;;;1.08;0.40;;;22.30;36.70;;;;;;4945067;28;20055;-64
2024/01/26 11:06:35;;;;;;;1.75;0.30;;;22.30;37.00;;;;;;4946823;28;20514;-65
2024/01/26 11:09:08;;;;;;;0.43;0.20;;;22.30;37.20;;;;;;4943569;28;20051;-65
2024/01/26 11:11:36;;;;;;;0.65;0.10;;;22.30;37.40;;;;;;4943336;28;20056;-65
2024/01/26 11:14:06;;;;;;;6.10;0.90;;;22.30;37.50;;;;;;4946787;28;20062;-61
2024/01/26 11:16:34;;;;;;;4.82;0.80;;;22.20;37.40;;;;;;4945907;28;20074;-63
2024/01/26 11:19:02;;;;;;;2.75;0.55;;;22.20;37.20;;;;;;4944782;28;20515;-63
2024/01/26 11:21:42;;;;;;;3.55;0.40;;;22.10;37.30;;;;;;4949272;28;20063;-61
2024/01/26 11:24:17;;;;;;;2.30;0.30;;;22.10;37.50;;;;;;4947609;28;20488;-65
2024/01/26 11:26:56;;;;;;;3.25;0.50;;;22.10;37.40;;;;;;4948461;28;20058;-66
2024/01/26 11:29:31;;;;;;;5.32;0.30;;;22.10;37.30;;;;;;4946267;28;20503;-63
2024/01/26 11:31:59;;;;;;;2.47;0.82;;;22.10;37.40;;;;;;4949318;28;20059;-63
2024/01/26 11:34:26;;;;;;;2.40;0.25;;;22.10;37.30;;;;;;4948306;28;20063;-63
2024/01/26 11:37:06;;;;;;;4.72;0.73;;;22.10;37.40;;;;;;4945587;28;20047;-62
2024/01/26 11:39:33;;;;;;;4.13;0.50;;;22.10;37.30;;;;;;4947664;28;20047;-62
2024/01/26 11:42:01;;;;;;;8.30;0.85;;;22.10;37.20;;;;;;4946721;28;20055;-62
2024/01/26 11:44:30;;;;;;;1.95;0.40;;;22.10;37.00;;;;;;4946453;28;20066;-61
2024/01/26 11:46:58;;;;;;;4.65;0.73;;;22.10;36.90;;;;;;4945451;28;20051;-60
2024/01/26 11:49:25;;;;;;;12.13;0.70;;;22.10;37.00;;;;;;4946755;28;20063;-61
2024/01/26 11:51:53;;;;;;;8.27;1.05;;;22.10;36.90;;;;;;4947829;28;20058;-61
2024/01/26 11:54:21;;;;;;;2.58;0.60;;;22.10;37.00;;;;;;4945561;28;20093;-63
2024/01/26 11:56:49;;;;;;;14.68;1.15;;;22.20;36.90;;;;;;4946316;28;20406;-60
2024/01/26 11:59:16;;;;;;;6.47;0.88;;;22.10;36.70;;;;;;4945346;28;20047;-62
2024/01/26 12:01:45;;;;;;;6.97;0.88;;;22.20;36.80;;;;;;4946632;28;20062;-61
2024/01/26 12:04:12;;;;;;;20.58;1.25;;;22.20;36.70;;;;;;4944371;28;20420;-61
2024/01/26 12:06:41;;;;;;;7.78;0.90;;;22.20;36.70;;;;;;4942736;28;20492;-62
2024/01/26 12:09:09;;;;;;;11.10;0.80;;;22.10;36.60;;;;;;4943200;28;20062;-62
2024/01/26 12:11:37;;;;;;;13.43;1.83;;;22.20;36.70;;;;;;4945855;28;20043;-62
2024/01/26 12:14:04;;;;;;;19.25;1.88;;;22.10;36.50;;;;;;4943585;28;20643;-62
2024/01/26 12:16:32;;;;;;;17.70;2.28;;;22.20;36.50;;;;;;4946130;28;20518;-60
2024/01/26 12:19:02;;;;;;;29.33;1.98;;;22.20;36.40;;;;;;4941553;28;20062;-62
2024/01/26 12:21:30;;;;;;;16.33;1.73;;;22.10;36.20;;;;;;4944187;28;20059;-61
2024/01/26 12:23:57;;;;;;;13.00;1.58;;;22.10;36.30;;;;;;4946328;28;20053;-59
2024/01/26 12:26:24;;;;;;;24.73;1.50;;;22.10;36.20;;;;;;4945293;28;20476;-62
2024/01/26 12:28:52;;;;;;;18.10;2.10;;;22.20;36.30;;;;;;4944738;28;20544;-60
2024/01/26 12:31:19;;;;;;;10.57;1.33;;;22.20;36.40;;;;;;4944434;28;20063;-60
2024/01/26 12:33:46;;;;;;;6.00;1.30;;;22.20;36.30;;;;;;4949079;28;20055;-60
2024/01/26 12:36:15;;;;;;;9.23;1.50;;;22.20;36.40;;;;;;4948078;28;20404;-61
2024/01/26 12:38:42;;;;;;;7.88;1.23;;;22.30;36.40;;;;;;4948334;28;20552;-60
2024/01/26 12:41:11;;;;;;;5.90;1.08;;;22.30;36.20;;;;;;4948904;28;20047;-60
2024/01/26 12:43:38;;;;;;;7.53;1.38;;;22.30;36.10;;;;;;4948059;28;20066;-60
2024/01/26 12:46:07;;;;;;;4.70;0.82;;;22.30;36.20;;;;;;4948267;28;20055;-61